createdAt,value
2023-05-05T00:01:00.758Z,13.00
2023-05-05T00:03:29.315Z,13.00
2023-05-05T00:05:58.936Z,13.00
2023-05-05T00:08:27.036Z,13.00
2023-05-05T00:10:56.125Z,13.00
2023-05-05T00:13:24.682Z,13.00
2023-05-05T00:15:54.508Z,13.00
2023-05-05T00:18:22.704Z,12.90
2023-05-05T00:20:51.699Z,12.90
2023-05-05T00:23:21.523Z,12.90
2023-05-05T00:25:49.724Z,12.80
2023-05-05T00:28:17.865Z,12.80
2023-05-05T00:30:46.175Z,12.70
2023-05-05T00:33:14.353Z,12.70
2023-05-05T00:35:42.430Z,12.70
2023-05-05T00:38:10.421Z,12.70
2023-05-05T00:40:39.804Z,12.70
2023-05-05T00:43:08.289Z,12.70
2023-05-05T00:45:37.432Z,12.70
2023-05-05T00:48:06.376Z,12.70
2023-05-05T00:50:34.954Z,12.70
2023-05-05T00:53:05.883Z,12.60
2023-05-05T00:55:34.676Z,12.60
2023-05-05T00:58:04.990Z,12.60
2023-05-05T01:00:32.948Z,12.60
2023-05-05T01:03:01.441Z,12.60
2023-05-05T01:05:34.117Z,12.60
2023-05-05T01:08:16.335Z,12.60
2023-05-05T01:10:49.829Z,12.60
2023-05-05T01:13:27.509Z,12.50
2023-05-05T01:16:03.133Z,12.50
2023-05-05T01:18:38.211Z,12.50
2023-05-05T01:21:13.608Z,12.50
2023-05-05T01:24:04.374Z,12.50
2023-05-05T01:26:49.218Z,12.50
2023-05-05T01:29:51.919Z,12.50
2023-05-05T01:32:26.581Z,12.40
2023-05-05T01:34:59.479Z,12.40
2023-05-05T01:37:31.554Z,12.40
2023-05-05T01:40:05.215Z,12.30
2023-05-05T01:42:35.024Z,12.30
2023-05-05T01:45:08.224Z,12.20
2023-05-05T01:47:40.352Z,12.20
2023-05-05T01:50:10.581Z,12.20
2023-05-05T01:52:40.260Z,12.10
2023-05-05T01:55:10.852Z,12.10
2023-05-05T01:57:40.992Z,12.00
2023-05-05T02:00:10.643Z,12.00
2023-05-05T02:02:41.784Z,12.00
2023-05-05T02:05:10.747Z,12.00
2023-05-05T02:07:39.141Z,12.00
2023-05-05T02:10:09.130Z,12.00
2023-05-05T02:12:40.255Z,11.90
2023-05-05T02:15:11.315Z,12.00
2023-05-05T02:17:43.371Z,11.90
2023-05-05T02:20:15.108Z,11.90
2023-05-05T02:22:43.207Z,11.90
2023-05-05T02:25:11.457Z,11.80
2023-05-05T02:27:44.426Z,11.80
2023-05-05T02:30:14.852Z,11.80
2023-05-05T02:32:56.947Z,11.80
2023-05-05T02:35:29.770Z,11.80
2023-05-05T02:38:02.826Z,11.80
2023-05-05T02:40:34.537Z,11.70
2023-05-05T02:43:06.938Z,11.70
2023-05-05T02:45:35.031Z,11.70
2023-05-05T02:48:05.497Z,11.70
2023-05-05T02:50:34.250Z,11.70
2023-05-05T02:53:02.761Z,11.70
2023-05-05T02:55:38.190Z,11.70
2023-05-05T02:58:08.607Z,11.70
2023-05-05T03:00:44.116Z,11.60
2023-05-05T03:03:23.532Z,11.60
2023-05-05T03:05:56.797Z,11.60
2023-05-05T03:08:30.795Z,11.60
2023-05-05T03:11:04.948Z,11.70
2023-05-05T03:13:35.701Z,11.60
2023-05-05T03:16:06.542Z,11.60
2023-05-05T03:18:37.598Z,11.70
2023-05-05T03:21:09.202Z,11.60
2023-05-05T03:23:37.356Z,11.60
2023-05-05T03:26:05.399Z,11.60
2023-05-05T03:28:33.492Z,11.50
2023-05-05T03:31:01.784Z,11.50
2023-05-05T03:33:29.858Z,11.60
2023-05-05T03:35:59.349Z,11.50
2023-05-05T03:38:27.372Z,11.50
2023-05-05T03:40:55.374Z,11.60
2023-05-05T03:43:23.446Z,11.50
2023-05-05T03:45:51.829Z,11.60
2023-05-05T03:48:19.819Z,11.60
2023-05-05T03:50:47.858Z,11.60
2023-05-05T03:53:17.336Z,11.60
2023-05-05T03:55:45.315Z,11.60
2023-05-05T03:58:13.629Z,11.60
2023-05-05T04:00:41.767Z,11.70
2023-05-05T04:03:09.972Z,11.60
2023-05-05T04:05:38.043Z,11.60
2023-05-05T04:08:06.276Z,11.60
2023-05-05T04:10:35.671Z,11.70
2023-05-05T04:13:04.366Z,11.60
2023-05-05T04:15:32.724Z,11.60
2023-05-05T04:18:00.967Z,11.70
2023-05-05T04:20:29.036Z,11.70
2023-05-05T04:22:57.103Z,11.70
2023-05-05T04:25:25.117Z,11.70
2023-05-05T04:27:54.516Z,11.70
2023-05-05T04:30:22.671Z,11.70
2023-05-05T04:32:50.697Z,11.60
2023-05-05T04:35:18.875Z,11.60
2023-05-05T04:37:46.911Z,11.60
2023-05-05T04:40:14.951Z,11.60
2023-05-05T04:42:42.961Z,11.50
2023-05-05T04:45:13.178Z,11.60
2023-05-05T04:47:41.886Z,11.50
2023-05-05T04:50:11.399Z,11.50
2023-05-05T04:52:39.692Z,11.50
2023-05-05T04:55:10.412Z,11.50
2023-05-05T04:57:38.599Z,11.50
2023-05-05T05:00:08.231Z,11.50
2023-05-05T05:02:38.793Z,11.50
2023-05-05T05:05:07.924Z,11.50
2023-05-05T05:07:35.963Z,11.50
2023-05-05T05:10:04.036Z,11.50
2023-05-05T05:12:32.110Z,11.50
2023-05-05T05:15:00.272Z,11.50
2023-05-05T05:17:30.053Z,11.50
2023-05-05T05:20:01.775Z,11.50
2023-05-05T05:22:29.900Z,11.50
2023-05-05T05:24:58.015Z,11.50
2023-05-05T05:27:26.115Z,11.50
2023-05-05T05:29:54.141Z,11.50
2023-05-05T05:32:22.460Z,11.50
2023-05-05T05:34:50.470Z,11.50
2023-05-05T05:37:19.789Z,11.50
2023-05-05T05:39:52.688Z,11.50
2023-05-05T05:42:20.842Z,11.50
2023-05-05T05:44:48.851Z,11.50
2023-05-05T05:47:16.984Z,11.50
2023-05-05T05:49:45.019Z,11.50
2023-05-05T05:52:13.245Z,11.50
2023-05-05T05:54:42.769Z,11.50
2023-05-05T05:57:11.674Z,11.50
2023-05-05T05:59:39.700Z,11.50
2023-05-05T06:02:08.351Z,11.50
2023-05-05T06:04:36.674Z,11.50
2023-05-05T06:07:04.751Z,11.50
2023-05-05T06:09:32.748Z,11.50
2023-05-05T06:12:03.749Z,11.50
2023-05-05T06:14:31.904Z,11.50
2023-05-05T06:17:00.043Z,11.60
2023-05-05T06:19:28.048Z,11.50
2023-05-05T06:21:56.033Z,11.60
2023-05-05T06:24:24.047Z,11.60
2023-05-05T06:26:52.019Z,11.60
2023-05-05T06:29:22.311Z,11.70
2023-05-05T06:31:50.478Z,11.60
2023-05-05T06:34:18.612Z,11.60
2023-05-05T06:36:46.759Z,11.60
2023-05-05T06:39:16.081Z,11.70
2023-05-05T06:41:44.255Z,11.80
2023-05-05T06:44:12.361Z,11.90
2023-05-05T06:46:43.628Z,11.90
2023-05-05T06:49:11.690Z,11.90
2023-05-05T06:51:41.551Z,12.00
2023-05-05T06:54:10.880Z,12.10
2023-05-05T06:56:39.030Z,12.20
2023-05-05T06:59:06.996Z,12.20
2023-05-05T07:01:34.998Z,12.30
2023-05-05T07:04:04.492Z,12.30
2023-05-05T07:06:32.800Z,12.30
2023-05-05T07:09:00.821Z,12.30
2023-05-05T07:11:28.825Z,12.30
2023-05-05T07:13:56.828Z,12.40
2023-05-05T07:16:27.082Z,12.40
2023-05-05T07:18:55.225Z,12.40
2023-05-05T07:21:24.836Z,12.40
2023-05-05T07:23:52.928Z,12.50
2023-05-05T07:26:20.941Z,12.50
2023-05-05T07:28:51.933Z,12.50
2023-05-05T07:31:22.039Z,12.50
2023-05-05T07:33:50.714Z,12.50
2023-05-05T07:36:19.002Z,12.50
2023-05-05T07:38:48.503Z,12.50
2023-05-05T07:41:16.473Z,12.50
2023-05-05T07:43:44.869Z,12.40
2023-05-05T07:46:13.912Z,12.30
2023-05-05T07:48:42.277Z,12.30
2023-05-05T07:51:11.132Z,12.30
2023-05-05T07:53:39.122Z,12.30
2023-05-05T07:56:09.108Z,12.20
2023-05-05T07:58:37.146Z,12.20
2023-05-05T08:01:06.554Z,12.20
2023-05-05T08:03:34.738Z,12.20
2023-05-05T08:06:08.877Z,12.30
2023-05-05T08:08:37.326Z,12.30
2023-05-05T08:11:06.644Z,12.30
2023-05-05T08:13:36.143Z,12.40
2023-05-05T08:16:04.282Z,12.50
2023-05-05T08:18:32.276Z,12.60
2023-05-05T08:21:00.311Z,12.70
2023-05-05T08:23:28.260Z,12.70
2023-05-05T08:26:00.196Z,12.80
2023-05-05T08:28:28.193Z,12.90
2023-05-05T08:30:57.647Z,12.90
2023-05-05T08:33:25.884Z,13.00
2023-05-05T08:35:53.832Z,13.10
2023-05-05T08:38:21.868Z,13.20
2023-05-05T08:40:51.946Z,13.30
2023-05-05T08:43:22.902Z,13.50
2023-05-05T08:45:52.496Z,13.60
2023-05-05T08:48:24.290Z,13.70
2023-05-05T08:51:00.355Z,13.70
2023-05-05T08:53:42.688Z,13.70
2023-05-05T08:56:12.808Z,13.70
2023-05-05T08:58:43.043Z,13.70
2023-05-05T09:01:12.050Z,13.70
2023-05-05T09:03:42.308Z,13.70
2023-05-05T09:06:10.440Z,13.70
2023-05-05T09:08:39.256Z,13.80
2023-05-05T09:11:07.908Z,13.90
2023-05-05T09:13:36.018Z,13.90
2023-05-05T09:16:04.276Z,13.90
2023-05-05T09:18:32.277Z,14.00
2023-05-05T09:21:02.128Z,14.10
2023-05-05T09:23:30.735Z,14.20
2023-05-05T09:26:08.811Z,14.30
2023-05-05T09:28:37.526Z,14.50
2023-05-05T09:31:23.757Z,14.70
2023-05-05T09:33:51.821Z,14.90
2023-05-05T09:36:41.405Z,15.00
2023-05-05T09:39:09.419Z,15.10
2023-05-05T09:41:42.520Z,15.20
2023-05-05T09:44:11.684Z,15.30
2023-05-05T09:46:40.282Z,15.40
2023-05-05T09:49:18.178Z,15.50
2023-05-05T09:51:48.388Z,15.50
2023-05-05T09:54:27.417Z,15.50
2023-05-05T09:56:56.037Z,15.40
2023-05-05T09:59:24.912Z,15.40
2023-05-05T10:01:53.403Z,15.50
2023-05-05T10:04:26.159Z,15.50
2023-05-05T10:06:56.620Z,15.50
2023-05-05T10:09:25.059Z,15.50
2023-05-05T10:11:53.938Z,15.40
2023-05-05T10:14:22.893Z,15.40
2023-05-05T10:16:52.036Z,15.30
2023-05-05T10:19:22.988Z,15.20
2023-05-05T10:21:52.562Z,15.10
2023-05-05T10:24:36.616Z,15.10
2023-05-05T10:27:12.675Z,15.00
2023-05-05T10:29:49.215Z,15.00
2023-05-05T10:32:47.029Z,14.90
2023-05-05T10:35:18.184Z,14.80
2023-05-05T10:37:47.025Z,14.80
2023-05-05T10:40:17.783Z,14.70
2023-05-05T10:42:45.954Z,14.70
2023-05-05T10:45:14.014Z,14.60
2023-05-05T10:47:42.189Z,14.60
2023-05-05T10:50:19.105Z,14.60
2023-05-05T10:52:57.030Z,14.60
2023-05-05T10:55:35.652Z,14.60
2023-05-05T10:58:03.612Z,14.60
2023-05-05T11:00:51.855Z,14.70
2023-05-05T11:03:24.356Z,14.80
2023-05-05T11:06:13.634Z,14.90
2023-05-05T11:08:43.769Z,15.00
2023-05-05T11:11:13.874Z,15.00
2023-05-05T11:13:42.699Z,15.10
2023-05-05T11:16:44.635Z,15.20
2023-05-05T11:19:46.117Z,15.40
2023-05-05T11:22:14.185Z,15.50
2023-05-05T11:24:42.341Z,15.60
2023-05-05T11:27:11.789Z,15.80
2023-05-05T11:30:07.040Z,16.00
2023-05-05T11:32:36.176Z,16.40
2023-05-05T11:35:06.237Z,16.70
2023-05-05T11:37:34.712Z,17.20
2023-05-05T11:40:12.563Z,17.50
2023-05-05T11:42:42.026Z,17.80
2023-05-05T11:45:25.357Z,17.90
2023-05-05T11:47:53.555Z,18.10
2023-05-05T11:50:23.633Z,18.20
2023-05-05T11:52:51.653Z,18.30
2023-05-05T11:55:23.416Z,18.40
2023-05-05T11:57:53.083Z,18.40
2023-05-05T12:00:21.536Z,18.60
2023-05-05T12:02:57.968Z,18.90
2023-05-05T12:05:26.414Z,19.30
2023-05-05T12:07:58.666Z,19.50
2023-05-05T12:10:26.930Z,19.80
2023-05-05T12:12:56.345Z,20.10
2023-05-05T12:15:31.798Z,20.40
2023-05-05T12:18:02.344Z,20.80
2023-05-05T12:20:32.432Z,21.10
2023-05-05T12:23:04.871Z,21.40
2023-05-05T12:25:38.275Z,21.70
2023-05-05T12:28:08.844Z,21.80
2023-05-05T12:30:37.102Z,21.90
2023-05-05T12:33:06.741Z,22.10
2023-05-05T12:35:35.115Z,22.30
2023-05-05T12:38:03.230Z,22.50
2023-05-05T12:40:45.191Z,22.40
2023-05-05T12:43:27.207Z,22.40
2023-05-05T12:46:09.971Z,22.30
2023-05-05T12:48:39.607Z,22.10
2023-05-05T12:51:19.976Z,22.00
2023-05-05T12:53:49.364Z,21.70
2023-05-05T12:56:37.729Z,21.70
2023-05-05T12:59:08.422Z,21.80
2023-05-05T13:01:37.811Z,22.10
2023-05-05T13:04:14.073Z,22.30
2023-05-05T13:06:42.901Z,22.30
2023-05-05T13:09:23.505Z,22.40
2023-05-05T13:11:51.976Z,22.30
2023-05-05T13:14:21.602Z,22.00
2023-05-05T13:16:49.722Z,21.80
2023-05-05T13:19:17.673Z,21.70
2023-05-05T13:21:45.716Z,21.70
2023-05-05T13:24:25.878Z,21.60
2023-05-05T13:26:59.521Z,21.40
2023-05-05T13:29:31.309Z,21.30
2023-05-05T13:32:00.039Z,21.10
2023-05-05T13:34:28.424Z,21.00
2023-05-05T13:36:56.545Z,20.90
2023-05-05T13:39:24.620Z,20.80
2023-05-05T13:41:52.830Z,20.70
2023-05-05T13:44:21.016Z,20.60
2023-05-05T13:46:50.363Z,20.50
2023-05-05T13:49:18.481Z,20.40
2023-05-05T13:51:47.058Z,20.50
2023-05-05T13:54:15.367Z,20.50
2023-05-05T13:56:44.003Z,20.50
2023-05-05T13:59:12.026Z,20.40
2023-05-05T14:01:40.202Z,20.30
2023-05-05T14:04:09.922Z,20.20
2023-05-05T14:06:37.917Z,20.10
2023-05-05T14:09:07.735Z,20.10
2023-05-05T14:11:35.805Z,20.10
2023-05-05T14:14:03.799Z,20.20
2023-05-05T14:16:31.986Z,20.40
2023-05-05T14:19:00.202Z,20.50
2023-05-05T14:21:29.696Z,20.50
2023-05-05T14:23:57.761Z,20.50
2023-05-05T14:26:25.827Z,20.40
2023-05-05T14:28:53.908Z,20.30
2023-05-05T14:31:22.116Z,20.20
2023-05-05T14:33:50.116Z,20.20
2023-05-05T14:36:18.253Z,20.10
2023-05-05T14:38:47.767Z,20.00
2023-05-05T14:41:15.925Z,20.00
2023-05-05T14:43:43.967Z,19.90
2023-05-05T14:46:12.112Z,19.80
2023-05-05T14:48:40.376Z,19.70
2023-05-05T14:51:08.449Z,19.60
2023-05-05T14:53:36.422Z,19.40
2023-05-05T14:56:06.306Z,19.30
2023-05-05T14:58:34.436Z,19.20
2023-05-05T15:01:02.500Z,19.20
2023-05-05T15:03:30.572Z,19.20
2023-05-05T15:05:59.084Z,19.10
2023-05-05T15:08:27.114Z,19.10
2023-05-05T15:10:55.108Z,19.10
2023-05-05T15:13:24.660Z,19.00
2023-05-05T15:15:52.793Z,19.00
2023-05-05T15:18:22.734Z,19.00
2023-05-05T15:20:51.063Z,18.90
2023-05-05T15:23:19.143Z,18.90
2023-05-05T15:25:47.522Z,18.80
2023-05-05T15:28:15.550Z,18.80
2023-05-05T15:30:45.697Z,18.90
2023-05-05T15:33:13.687Z,18.90
2023-05-05T15:35:41.648Z,19.00
2023-05-05T15:38:09.789Z,19.00
2023-05-05T15:40:37.770Z,19.10
2023-05-05T15:43:05.747Z,19.20
2023-05-05T15:45:34.281Z,19.20
2023-05-05T15:48:03.914Z,19.30
2023-05-05T15:50:32.116Z,19.30
2023-05-05T15:53:00.530Z,19.40
2023-05-05T15:55:29.106Z,19.70
2023-05-05T15:57:57.275Z,20.20
2023-05-05T16:00:25.695Z,20.50
2023-05-05T16:02:53.764Z,20.70
2023-05-05T16:05:23.403Z,20.70
2023-05-05T16:07:52.587Z,20.60
2023-05-05T16:10:21.049Z,20.60
2023-05-05T16:12:49.154Z,20.80
2023-05-05T16:15:17.239Z,20.80
2023-05-05T16:17:45.352Z,20.70
2023-05-05T16:20:14.252Z,20.40
2023-05-05T16:22:43.760Z,20.20
2023-05-05T16:25:11.788Z,20.00
2023-05-05T16:27:39.929Z,19.90
2023-05-05T16:30:10.264Z,19.80
2023-05-05T16:32:38.661Z,19.70
2023-05-05T16:35:07.901Z,19.70
2023-05-05T16:37:36.526Z,19.60
2023-05-05T16:40:07.524Z,19.60
2023-05-05T16:42:35.528Z,19.60
2023-05-05T16:45:03.547Z,19.60
2023-05-05T16:47:31.837Z,19.50
2023-05-05T16:49:59.967Z,19.50
2023-05-05T16:52:27.948Z,19.30
2023-05-05T16:54:56.662Z,19.20
2023-05-05T16:57:26.096Z,19.00
2023-05-05T16:59:56.383Z,18.70
2023-05-05T17:02:24.549Z,18.50
2023-05-05T17:04:52.859Z,18.20
2023-05-05T17:07:21.438Z,17.90
2023-05-05T17:09:49.596Z,17.70
2023-05-05T17:12:17.563Z,17.50
2023-05-05T17:14:47.336Z,17.30
2023-05-05T17:17:15.456Z,17.20
2023-05-05T17:19:44.770Z,17.10
2023-05-05T17:22:12.775Z,17.00
2023-05-05T17:24:40.959Z,16.80
2023-05-05T17:27:09.067Z,16.70
2023-05-05T17:29:40.826Z,16.50
2023-05-05T17:32:10.616Z,16.40
2023-05-05T17:34:38.961Z,16.30
2023-05-05T17:37:06.983Z,16.10
2023-05-05T17:39:34.913Z,16.00
2023-05-05T17:42:03.001Z,15.90
2023-05-05T17:44:32.654Z,15.80
2023-05-05T17:47:02.733Z,15.70
2023-05-05T17:49:32.149Z,15.50
2023-05-05T17:52:00.202Z,15.40
2023-05-05T17:54:28.665Z,15.40
2023-05-05T17:56:56.692Z,15.20
2023-05-05T17:59:24.788Z,15.10
2023-05-05T18:01:52.773Z,15.00
2023-05-05T18:04:20.788Z,14.90
2023-05-05T18:06:50.203Z,14.80
2023-05-05T18:09:18.452Z,14.70
2023-05-05T18:11:46.453Z,14.60
2023-05-05T18:14:14.552Z,14.50
2023-05-05T18:16:47.827Z,14.40
2023-05-05T18:19:15.878Z,14.30
2023-05-05T18:21:43.930Z,14.20
2023-05-05T18:24:20.018Z,14.10
2023-05-05T18:26:49.810Z,14.00
2023-05-05T18:29:18.480Z,14.00
2023-05-05T18:31:48.511Z,13.90
2023-05-05T18:34:17.000Z,13.80
2023-05-05T18:36:45.451Z,13.80
2023-05-05T18:39:15.217Z,13.70
2023-05-05T18:41:43.292Z,13.60
2023-05-05T18:44:11.553Z,13.60
2023-05-05T18:46:40.145Z,13.50
2023-05-05T18:49:08.441Z,13.50
2023-05-05T18:51:36.436Z,13.50
2023-05-05T18:54:04.679Z,13.40
2023-05-05T18:56:34.059Z,13.30
2023-05-05T19:01:31.212Z,13.20
2023-05-05T19:03:59.279Z,13.10
2023-05-05T19:06:27.376Z,13.00
2023-05-05T19:08:55.478Z,13.00
2023-05-05T19:11:23.518Z,13.00
2023-05-05T19:13:53.004Z,12.90
2023-05-05T19:16:21.052Z,12.80
2023-05-05T19:18:49.332Z,12.80
2023-05-05T19:21:17.538Z,12.70
2023-05-05T19:23:45.695Z,12.60
2023-05-05T19:26:15.320Z,12.60
2023-05-05T19:28:43.456Z,12.60
2023-05-05T19:31:12.796Z,12.50
2023-05-05T19:33:45.077Z,12.60
2023-05-05T19:36:13.590Z,12.40
2023-05-05T19:38:44.569Z,12.30
2023-05-05T19:41:13.012Z,12.30
2023-05-05T19:43:41.035Z,12.20
2023-05-05T19:46:09.229Z,12.20
2023-05-05T19:48:39.024Z,12.20
2023-05-05T19:51:07.056Z,12.10
2023-05-05T19:53:35.061Z,12.00
2023-05-05T19:56:04.769Z,12.00
2023-05-05T19:58:35.265Z,11.90
2023-05-05T20:01:03.482Z,11.90
2023-05-05T20:03:31.553Z,11.80
2023-05-05T20:06:01.318Z,11.80
2023-05-05T20:08:30.912Z,11.70
2023-05-05T20:10:59.504Z,11.70
2023-05-05T20:13:27.481Z,11.70
2023-05-05T20:15:56.034Z,11.60
2023-05-05T20:18:24.216Z,11.60
2023-05-05T20:20:52.244Z,11.60
2023-05-05T20:23:21.847Z,11.60
2023-05-05T20:25:49.871Z,11.50
2023-05-05T20:28:17.872Z,11.50
2023-05-05T20:30:45.855Z,11.40
2023-05-05T20:33:14.384Z,11.40
2023-05-05T20:35:42.415Z,11.40
2023-05-05T20:38:11.228Z,11.30
2023-05-05T20:40:41.685Z,11.30
2023-05-05T20:43:09.690Z,11.30
2023-05-05T20:45:38.243Z,11.30
2023-05-05T20:48:07.412Z,11.30
2023-05-05T20:50:38.430Z,11.30
2023-05-05T20:53:08.299Z,11.20
2023-05-05T20:55:36.368Z,11.20
2023-05-05T20:58:06.936Z,11.10
2023-05-05T21:00:35.416Z,11.10
2023-05-05T21:03:04.515Z,11.00
2023-05-05T21:05:32.866Z,11.00
2023-05-05T21:08:01.437Z,11.00
2023-05-05T21:10:32.006Z,11.00
2023-05-05T21:13:00.364Z,10.90
2023-05-05T21:15:30.010Z,10.90
2023-05-05T21:17:58.745Z,10.90
2023-05-05T21:20:26.951Z,10.80
2023-05-05T21:22:55.143Z,10.90
2023-05-05T21:25:24.112Z,10.70
2023-05-05T21:27:52.099Z,10.70
2023-05-05T21:30:20.114Z,10.70
2023-05-05T21:32:49.812Z,10.70
2023-05-05T21:35:17.861Z,10.60
2023-05-05T21:37:45.818Z,10.60
2023-05-05T21:40:16.242Z,10.60
2023-05-05T21:42:44.631Z,10.60
2023-05-05T21:45:13.145Z,10.60
2023-05-05T21:47:41.209Z,10.50
2023-05-05T21:50:12.282Z,10.50
2023-05-05T21:52:41.200Z,10.50
2023-05-05T21:55:11.125Z,10.40
2023-05-05T21:57:39.172Z,10.50
2023-05-05T22:00:09.059Z,10.40
2023-05-05T22:02:37.571Z,10.50
2023-05-05T22:05:06.351Z,10.30
2023-05-05T22:07:35.706Z,10.40
2023-05-05T22:10:03.877Z,10.40
2023-05-05T22:12:31.921Z,10.40
2023-05-05T22:14:59.885Z,10.30
2023-05-05T22:17:27.881Z,10.30
2023-05-05T22:19:56.040Z,10.30
2023-05-05T22:22:24.182Z,10.30
2023-05-05T22:24:53.565Z,10.30
2023-05-05T22:27:21.591Z,10.30
2023-05-05T22:29:49.588Z,10.20
2023-05-05T22:32:17.828Z,10.20
2023-05-05T22:34:45.810Z,10.20
2023-05-05T22:37:14.461Z,10.10
2023-05-05T22:39:42.419Z,10.10
2023-05-05T22:42:11.972Z,10.00
2023-05-05T22:44:40.194Z,10.00
2023-05-05T22:47:09.120Z,10.00
2023-05-05T22:49:37.406Z,10.00
2023-05-05T22:52:05.715Z,10.00
2023-05-05T22:54:33.773Z,10.00
2023-05-05T22:57:02.364Z,10.00
2023-05-05T22:59:31.900Z,9.90
2023-05-05T23:02:00.157Z,9.90
2023-05-05T23:04:28.201Z,9.90
2023-05-05T23:06:56.678Z,9.90
2023-05-05T23:09:24.822Z,9.90
2023-05-05T23:11:52.989Z,9.90
2023-05-05T23:14:21.161Z,9.90
2023-05-05T23:16:50.673Z,9.80
2023-05-05T23:19:18.708Z,9.80
2023-05-05T23:21:53.280Z,9.80
2023-05-05T23:24:21.517Z,9.80
2023-05-05T23:26:49.540Z,9.80
2023-05-05T23:29:17.644Z,9.80
2023-05-05T23:31:46.923Z,9.80
2023-05-05T23:34:16.485Z,9.80
2023-05-05T23:36:44.528Z,9.80
2023-05-05T23:39:12.832Z,9.80
2023-05-05T23:41:40.983Z,9.80
2023-05-05T23:44:09.251Z,9.70
2023-05-05T23:46:37.237Z,9.80
2023-05-05T23:49:05.325Z,9.80
2023-05-05T23:51:34.873Z,9.70
2023-05-05T23:54:03.280Z,9.60
2023-05-05T23:56:31.350Z,9.80
2023-05-05T23:58:59.413Z,9.70
